sensor_id;sensor_type;location;lat;lon;timestamp;P1;durP1;ratioP1;P2;durP2;ratioP2
48514;SDS011;34309;47.260;2.796;2024-02-21T00:00:11;1.87;;;1.80;;
48514;SDS011;34309;47.260;2.796;2024-02-21T00:02:47;1.43;;;1.43;;
48514;SDS011;34309;47.260;2.796;2024-02-21T00:05:20;1.60;;;1.53;;
48514;SDS011;34309;47.260;2.796;2024-02-21T00:07:54;1.93;;;1.83;;
48514;SDS011;34309;47.260;2.796;2024-02-21T00:10:27;2.07;;;1.97;;
48514;SDS011;34309;47.260;2.796;2024-02-21T00:13:03;1.93;;;1.83;;
48514;SDS011;34309;47.260;2.796;2024-02-21T00:15:37;2.07;;;1.97;;
48514;SDS011;34309;47.260;2.796;2024-02-21T00:18:12;1.77;;;1.67;;
48514;SDS011;34309;47.260;2.796;2024-02-21T00:20:45;2.33;;;2.23;;
48514;SDS011;34309;47.260;2.796;2024-02-21T00:23:19;1.37;;;1.37;;
48514;SDS011;34309;47.260;2.796;2024-02-21T00:25:48;1.73;;;1.63;;
48514;SDS011;34309;47.260;2.796;2024-02-21T00:28:22;1.70;;;1.60;;
48514;SDS011;34309;47.260;2.796;2024-02-21T00:30:55;1.77;;;1.73;;
48514;SDS011;34309;47.260;2.796;2024-02-21T00:33:31;1.77;;;1.67;;
48514;SDS011;34309;47.260;2.796;2024-02-21T00:36:05;1.77;;;1.67;;
48514;SDS011;34309;47.260;2.796;2024-02-21T00:38:39;1.70;;;1.60;;
48514;SDS011;34309;47.260;2.796;2024-02-21T00:41:13;1.77;;;1.67;;
48514;SDS011;34309;47.260;2.796;2024-02-21T00:43:46;2.57;;;1.93;;
48514;SDS011;34309;47.260;2.796;2024-02-21T00:46:21;2.03;;;1.70;;
48514;SDS011;34309;47.260;2.796;2024-02-21T00:48:57;1.57;;;1.47;;
48514;SDS011;34309;47.260;2.796;2024-02-21T00:51:30;1.77;;;1.67;;
48514;SDS011;34309;47.260;2.796;2024-02-21T00:54:04;1.80;;;1.70;;
48514;SDS011;34309;47.260;2.796;2024-02-21T00:56:37;2.10;;;2.00;;
48514;SDS011;34309;47.260;2.796;2024-02-21T00:59:11;2.50;;;2.30;;
48514;SDS011;34309;47.260;2.796;2024-02-21T01:01:45;1.30;;;1.20;;
48514;SDS011;34309;47.260;2.796;2024-02-21T01:04:20;2.27;;;1.83;;
48514;SDS011;34309;47.260;2.796;2024-02-21T01:06:56;2.40;;;2.30;;
48514;SDS011;34309;47.260;2.796;2024-02-21T01:09:30;2.03;;;1.93;;
48514;SDS011;34309;47.260;2.796;2024-02-21T01:12:03;4.50;;;1.70;;
48514;SDS011;34309;47.260;2.796;2024-02-21T01:14:37;1.30;;;1.30;;
48514;SDS011;34309;47.260;2.796;2024-02-21T01:17:11;1.73;;;1.73;;
48514;SDS011;34309;47.260;2.796;2024-02-21T01:19:47;1.70;;;1.60;;
48514;SDS011;34309;47.260;2.796;2024-02-21T01:22:21;1.40;;;1.40;;
48514;SDS011;34309;47.260;2.796;2024-02-21T01:24:54;2.53;;;1.57;;
48514;SDS011;34309;47.260;2.796;2024-02-21T01:27:28;1.93;;;1.73;;
48514;SDS011;34309;47.260;2.796;2024-02-21T01:30:01;2.57;;;2.13;;
48514;SDS011;34309;47.260;2.796;2024-02-21T01:32:34;3.23;;;1.63;;
48514;SDS011;34309;47.260;2.796;2024-02-21T01:35:09;1.60;;;1.50;;
48514;SDS011;34309;47.260;2.796;2024-02-21T01:37:43;1.90;;;1.80;;
48514;SDS011;34309;47.260;2.796;2024-02-21T01:40:16;1.83;;;1.73;;
48514;SDS011;34309;47.260;2.796;2024-02-21T01:42:50;1.80;;;1.70;;
48514;SDS011;34309;47.260;2.796;2024-02-21T01:45:26;1.80;;;1.70;;
48514;SDS011;34309;47.260;2.796;2024-02-21T01:47:59;1.63;;;1.53;;
48514;SDS011;34309;47.260;2.796;2024-02-21T01:50:35;1.67;;;1.60;;
48514;SDS011;34309;47.260;2.796;2024-02-21T01:53:09;1.60;;;1.50;;
48514;SDS011;34309;47.260;2.796;2024-02-21T01:55:49;2.00;;;1.90;;
48514;SDS011;34309;47.260;2.796;2024-02-21T01:58:22;3.70;;;2.10;;
48514;SDS011;34309;47.260;2.796;2024-02-21T02:00:57;2.00;;;1.90;;
48514;SDS011;34309;47.260;2.796;2024-02-21T02:03:30;1.77;;;1.67;;
48514;SDS011;34309;47.260;2.796;2024-02-21T02:06:06;1.50;;;1.50;;
48514;SDS011;34309;47.260;2.796;2024-02-21T02:08:39;1.40;;;1.40;;
48514;SDS011;34309;47.260;2.796;2024-02-21T02:11:13;2.43;;;2.27;;
48514;SDS011;34309;47.260;2.796;2024-02-21T02:13:42;2.10;;;2.00;;
48514;SDS011;34309;47.260;2.796;2024-02-21T02:16:16;1.40;;;1.40;;
48514;SDS011;34309;47.260;2.796;2024-02-21T02:18:50;1.77;;;1.67;;
48514;SDS011;34309;47.260;2.796;2024-02-21T02:21:26;2.40;;;2.30;;
48514;SDS011;34309;47.260;2.796;2024-02-21T02:24:03;1.70;;;1.60;;
48514;SDS011;34309;47.260;2.796;2024-02-21T02:26:37;1.90;;;1.80;;
48514;SDS011;34309;47.260;2.796;2024-02-21T02:29:11;1.73;;;1.63;;
48514;SDS011;34309;47.260;2.796;2024-02-21T02:31:44;1.63;;;1.53;;
48514;SDS011;34309;47.260;2.796;2024-02-21T02:34:18;2.10;;;2.00;;
48514;SDS011;34309;47.260;2.796;2024-02-21T02:36:52;5.43;;;2.13;;
48514;SDS011;34309;47.260;2.796;2024-02-21T02:39:27;2.80;;;2.60;;
48514;SDS011;34309;47.260;2.796;2024-02-21T02:42:01;1.63;;;1.60;;
48514;SDS011;34309;47.260;2.796;2024-02-21T02:44:34;2.03;;;1.93;;
48514;SDS011;34309;47.260;2.796;2024-02-21T02:47:08;2.43;;;2.23;;
48514;SDS011;34309;47.260;2.796;2024-02-21T02:49:42;2.20;;;2.10;;
48514;SDS011;34309;47.260;2.796;2024-02-21T02:52:16;1.40;;;1.30;;
48514;SDS011;34309;47.260;2.796;2024-02-21T02:54:51;1.63;;;1.57;;
48514;SDS011;34309;47.260;2.796;2024-02-21T02:57:27;2.20;;;2.10;;
48514;SDS011;34309;47.260;2.796;2024-02-21T03:00:01;1.77;;;1.67;;
48514;SDS011;34309;47.260;2.796;2024-02-21T03:02:35;1.70;;;1.60;;
48514;SDS011;34309;47.260;2.796;2024-02-21T03:05:12;1.43;;;1.43;;
48514;SDS011;34309;47.260;2.796;2024-02-21T03:07:47;2.07;;;1.90;;
48514;SDS011;34309;47.260;2.796;2024-02-21T03:10:22;1.63;;;1.53;;
48514;SDS011;34309;47.260;2.796;2024-02-21T03:12:56;3.10;;;2.90;;
48514;SDS011;34309;47.260;2.796;2024-02-21T03:15:30;1.90;;;1.80;;
48514;SDS011;34309;47.260;2.796;2024-02-21T03:18:04;1.23;;;1.20;;
48514;SDS011;34309;47.260;2.796;2024-02-21T03:20:37;1.90;;;1.77;;
48514;SDS011;34309;47.260;2.796;2024-02-21T03:23:10;1.43;;;1.33;;
48514;SDS011;34309;47.260;2.796;2024-02-21T03:25:45;1.80;;;1.70;;
48514;SDS011;34309;47.260;2.796;2024-02-21T03:28:19;2.40;;;2.20;;
48514;SDS011;34309;47.260;2.796;2024-02-21T03:30:52;2.40;;;2.00;;
48514;SDS011;34309;47.260;2.796;2024-02-21T03:33:26;4.03;;;1.73;;
48514;SDS011;34309;47.260;2.796;2024-02-21T03:35:59;1.80;;;1.70;;
48514;SDS011;34309;47.260;2.796;2024-02-21T03:38:32;1.53;;;1.50;;
48514;SDS011;34309;47.260;2.796;2024-02-21T03:41:08;1.43;;;1.20;;
48514;SDS011;34309;47.260;2.796;2024-02-21T03:43:42;3.00;;;2.80;;
48514;SDS011;34309;47.260;2.796;2024-02-21T03:46:15;1.90;;;1.80;;
48514;SDS011;34309;47.260;2.796;2024-02-21T03:48:49;1.57;;;1.47;;
48514;SDS011;34309;47.260;2.796;2024-02-21T03:51:22;1.83;;;1.80;;
48514;SDS011;34309;47.260;2.796;2024-02-21T03:53:55;1.40;;;1.40;;
48514;SDS011;34309;47.260;2.796;2024-02-21T03:56:31;1.40;;;1.40;;
48514;SDS011;34309;47.260;2.796;2024-02-21T03:59:04;2.90;;;1.93;;
48514;SDS011;34309;47.260;2.796;2024-02-21T04:01:38;2.00;;;1.90;;
48514;SDS011;34309;47.260;2.796;2024-02-21T04:04:11;2.20;;;2.00;;
48514;SDS011;34309;47.260;2.796;2024-02-21T04:06:48;1.57;;;1.47;;
48514;SDS011;34309;47.260;2.796;2024-02-21T04:09:22;1.30;;;1.30;;
48514;SDS011;34309;47.260;2.796;2024-02-21T04:11:57;1.40;;;1.40;;
48514;SDS011;34309;47.260;2.796;2024-02-21T04:14:31;2.17;;;2.07;;
48514;SDS011;34309;47.260;2.796;2024-02-21T04:17:04;1.73;;;1.63;;
48514;SDS011;34309;47.260;2.796;2024-02-21T04:19:39;1.87;;;1.80;;
48514;SDS011;34309;47.260;2.796;2024-02-21T04:22:12;1.30;;;1.30;;
48514;SDS011;34309;47.260;2.796;2024-02-21T04:24:46;3.27;;;1.67;;
48514;SDS011;34309;47.260;2.796;2024-02-21T04:27:21;1.30;;;1.30;;
48514;SDS011;34309;47.260;2.796;2024-02-21T04:29:49;1.57;;;1.50;;
48514;SDS011;34309;47.260;2.796;2024-02-21T04:32:22;1.20;;;1.20;;
48514;SDS011;34309;47.260;2.796;2024-02-21T04:34:58;1.53;;;1.53;;
48514;SDS011;34309;47.260;2.796;2024-02-21T04:37:31;1.40;;;1.30;;
48514;SDS011;34309;47.260;2.796;2024-02-21T04:40:05;1.77;;;1.67;;
48514;SDS011;34309;47.260;2.796;2024-02-21T04:42:42;1.80;;;1.70;;
48514;SDS011;34309;47.260;2.796;2024-02-21T04:45:15;1.60;;;1.50;;
48514;SDS011;34309;47.260;2.796;2024-02-21T04:47:48;2.90;;;2.70;;
48514;SDS011;34309;47.260;2.796;2024-02-21T04:50:22;1.53;;;1.53;;
48514;SDS011;34309;47.260;2.796;2024-02-21T04:52:55;1.30;;;1.30;;
48514;SDS011;34309;47.260;2.796;2024-02-21T04:55:29;1.73;;;1.63;;
48514;SDS011;34309;47.260;2.796;2024-02-21T04:58:04;1.47;;;1.47;;
48514;SDS011;34309;47.260;2.796;2024-02-21T05:00:37;1.80;;;1.70;;
48514;SDS011;34309;47.260;2.796;2024-02-21T05:03:10;3.07;;;1.77;;
48514;SDS011;34309;47.260;2.796;2024-02-21T05:05:39;1.70;;;1.60;;
48514;SDS011;34309;47.260;2.796;2024-02-21T05:08:12;1.33;;;1.33;;
48514;SDS011;34309;47.260;2.796;2024-02-21T05:10:45;1.80;;;1.70;;
48514;SDS011;34309;47.260;2.796;2024-02-21T05:13:20;2.20;;;2.10;;
48514;SDS011;34309;47.260;2.796;2024-02-21T05:15:54;1.40;;;1.40;;
48514;SDS011;34309;47.260;2.796;2024-02-21T05:18:27;1.50;;;1.40;;
48514;SDS011;34309;47.260;2.796;2024-02-21T05:21:00;1.63;;;1.57;;
48514;SDS011;34309;47.260;2.796;2024-02-21T05:23:34;1.20;;;1.20;;
48514;SDS011;34309;47.260;2.796;2024-02-21T05:26:08;1.30;;;1.30;;
48514;SDS011;34309;47.260;2.796;2024-02-21T05:28:44;1.23;;;1.23;;
48514;SDS011;34309;47.260;2.796;2024-02-21T05:31:17;3.40;;;1.50;;
48514;SDS011;34309;47.260;2.796;2024-02-21T05:33:52;1.90;;;1.80;;
48514;SDS011;34309;47.260;2.796;2024-02-21T05:36:26;1.50;;;1.50;;
48514;SDS011;34309;47.260;2.796;2024-02-21T05:38:59;1.53;;;1.53;;
48514;SDS011;34309;47.260;2.796;2024-02-21T05:41:32;2.00;;;1.57;;
48514;SDS011;34309;47.260;2.796;2024-02-21T05:44:07;1.70;;;1.60;;
48514;SDS011;34309;47.260;2.796;2024-02-21T05:46:40;1.80;;;1.70;;
48514;SDS011;34309;47.260;2.796;2024-02-21T05:49:13;1.67;;;1.67;;
48514;SDS011;34309;47.260;2.796;2024-02-21T05:51:47;1.90;;;1.80;;
48514;SDS011;34309;47.260;2.796;2024-02-21T05:54:20;1.73;;;1.63;;
48514;SDS011;34309;47.260;2.796;2024-02-21T05:56:54;1.70;;;1.60;;
48514;SDS011;34309;47.260;2.796;2024-02-21T05:59:30;1.50;;;1.50;;
48514;SDS011;34309;47.260;2.796;2024-02-21T06:02:03;1.63;;;1.53;;
48514;SDS011;34309;47.260;2.796;2024-02-21T06:04:38;2.20;;;2.10;;
48514;SDS011;34309;47.260;2.796;2024-02-21T06:07:11;2.33;;;2.23;;
48514;SDS011;34309;47.260;2.796;2024-02-21T06:09:45;2.47;;;2.37;;
48514;SDS011;34309;47.260;2.796;2024-02-21T06:12:18;1.90;;;1.80;;
48514;SDS011;34309;47.260;2.796;2024-02-21T06:14:54;1.80;;;1.77;;
48514;SDS011;34309;47.260;2.796;2024-02-21T06:17:28;2.00;;;1.57;;
48514;SDS011;34309;47.260;2.796;2024-02-21T06:20:01;1.80;;;1.70;;
48514;SDS011;34309;47.260;2.796;2024-02-21T06:22:35;1.90;;;1.80;;
48514;SDS011;34309;47.260;2.796;2024-02-21T06:25:09;1.43;;;1.43;;
48514;SDS011;34309;47.260;2.796;2024-02-21T06:27:43;1.33;;;1.33;;
48514;SDS011;34309;47.260;2.796;2024-02-21T06:30:17;1.77;;;1.67;;
48514;SDS011;34309;47.260;2.796;2024-02-21T06:32:51;1.10;;;1.10;;
48514;SDS011;34309;47.260;2.796;2024-02-21T06:35:27;1.60;;;1.50;;
48514;SDS011;34309;47.260;2.796;2024-02-21T06:38:01;2.10;;;2.00;;
48514;SDS011;34309;47.260;2.796;2024-02-21T06:40:34;1.20;;;1.20;;
48514;SDS011;34309;47.260;2.796;2024-02-21T06:43:11;1.40;;;1.30;;
48514;SDS011;34309;47.260;2.796;2024-02-21T06:45:47;1.73;;;1.67;;
48514;SDS011;34309;47.260;2.796;2024-02-21T06:48:22;1.87;;;1.77;;
48514;SDS011;34309;47.260;2.796;2024-02-21T06:50:56;1.93;;;1.83;;
48514;SDS011;34309;47.260;2.796;2024-02-21T06:53:29;1.67;;;1.57;;
48514;SDS011;34309;47.260;2.796;2024-02-21T06:56:03;2.37;;;1.47;;
48514;SDS011;34309;47.260;2.796;2024-02-21T06:58:37;1.93;;;1.83;;
48514;SDS011;34309;47.260;2.796;2024-02-21T07:01:14;1.40;;;1.30;;
48514;SDS011;34309;47.260;2.796;2024-02-21T07:03:47;1.73;;;1.63;;
48514;SDS011;34309;47.260;2.796;2024-02-21T07:06:21;1.73;;;1.63;;
48514;SDS011;34309;47.260;2.796;2024-02-21T07:08:55;1.70;;;1.60;;
48514;SDS011;34309;47.260;2.796;2024-02-21T07:11:29;1.80;;;1.70;;
48514;SDS011;34309;47.260;2.796;2024-02-21T07:14:03;1.90;;;1.63;;
48514;SDS011;34309;47.260;2.796;2024-02-21T07:16:38;1.97;;;1.87;;
48514;SDS011;34309;47.260;2.796;2024-02-21T07:19:12;1.70;;;1.67;;
48514;SDS011;34309;47.260;2.796;2024-02-21T07:21:45;2.00;;;1.90;;
48514;SDS011;34309;47.260;2.796;2024-02-21T07:24:19;1.93;;;1.63;;
48514;SDS011;34309;47.260;2.796;2024-02-21T07:26:48;1.00;;;1.00;;
48514;SDS011;34309;47.260;2.796;2024-02-21T07:29:22;1.50;;;1.50;;
48514;SDS011;34309;47.260;2.796;2024-02-21T07:31:57;1.37;;;1.37;;
48514;SDS011;34309;47.260;2.796;2024-02-21T07:34:31;1.90;;;1.80;;
48514;SDS011;34309;47.260;2.796;2024-02-21T07:37:05;2.03;;;1.50;;
48514;SDS011;34309;47.260;2.796;2024-02-21T07:39:38;1.33;;;1.30;;
48514;SDS011;34309;47.260;2.796;2024-02-21T07:42:13;1.60;;;1.50;;
48514;SDS011;34309;47.260;2.796;2024-02-21T07:44:47;1.87;;;1.77;;
48514;SDS011;34309;47.260;2.796;2024-02-21T07:47:21;1.67;;;1.67;;
48514;SDS011;34309;47.260;2.796;2024-02-21T07:49:56;2.90;;;2.10;;
48514;SDS011;34309;47.260;2.796;2024-02-21T07:52:29;3.30;;;3.13;;
48514;SDS011;34309;47.260;2.796;2024-02-21T07:55:03;1.73;;;1.63;;
48514;SDS011;34309;47.260;2.796;2024-02-21T07:57:36;1.97;;;1.83;;
48514;SDS011;34309;47.260;2.796;2024-02-21T08:00:10;1.30;;;1.30;;
48514;SDS011;34309;47.260;2.796;2024-02-21T08:02:52;1.60;;;1.50;;
48514;SDS011;34309;47.260;2.796;2024-02-21T08:05:25;1.90;;;1.70;;
48514;SDS011;34309;47.260;2.796;2024-02-21T08:08:01;1.63;;;1.53;;
48514;SDS011;34309;47.260;2.796;2024-02-21T08:10:35;1.30;;;1.30;;
48514;SDS011;34309;47.260;2.796;2024-02-21T08:13:11;1.83;;;1.73;;
48514;SDS011;34309;47.260;2.796;2024-02-21T08:15:44;1.47;;;1.47;;
48514;SDS011;34309;47.260;2.796;2024-02-21T08:18:19;3.03;;;2.27;;
48514;SDS011;34309;47.260;2.796;2024-02-21T08:20:53;2.00;;;1.90;;
48514;SDS011;34309;47.260;2.796;2024-02-21T08:23:27;2.20;;;2.10;;
48514;SDS011;34309;47.260;2.796;2024-02-21T08:26:02;1.77;;;1.60;;
48514;SDS011;34309;47.260;2.796;2024-02-21T08:28:38;1.73;;;1.63;;
48514;SDS011;34309;47.260;2.796;2024-02-21T08:31:18;1.87;;;1.77;;
48514;SDS011;34309;47.260;2.796;2024-02-21T08:33:56;2.00;;;1.80;;
48514;SDS011;34309;47.260;2.796;2024-02-21T08:36:34;1.93;;;1.83;;
48514;SDS011;34309;47.260;2.796;2024-02-21T08:39:11;3.00;;;1.93;;
48514;SDS011;34309;47.260;2.796;2024-02-21T08:41:48;2.13;;;1.50;;
48514;SDS011;34309;47.260;2.796;2024-02-21T08:44:22;1.80;;;1.70;;
48514;SDS011;34309;47.260;2.796;2024-02-21T08:46:57;4.80;;;1.93;;
48514;SDS011;34309;47.260;2.796;2024-02-21T08:49:33;5.87;;;2.17;;
48514;SDS011;34309;47.260;2.796;2024-02-21T08:52:06;1.43;;;1.43;;
48514;SDS011;34309;47.260;2.796;2024-02-21T08:54:40;2.17;;;1.70;;
48514;SDS011;34309;47.260;2.796;2024-02-21T08:57:14;1.97;;;1.80;;
48514;SDS011;34309;47.260;2.796;2024-02-21T08:59:50;1.97;;;1.40;;
48514;SDS011;34309;47.260;2.796;2024-02-21T09:02:24;2.13;;;2.03;;
48514;SDS011;34309;47.260;2.796;2024-02-21T09:04:59;1.97;;;1.87;;
48514;SDS011;34309;47.260;2.796;2024-02-21T09:07:32;3.97;;;2.00;;
48514;SDS011;34309;47.260;2.796;2024-02-21T09:10:07;2.37;;;2.27;;
48514;SDS011;34309;47.260;2.796;2024-02-21T09:12:44;2.80;;;2.60;;
48514;SDS011;34309;47.260;2.796;2024-02-21T09:15:18;2.73;;;2.53;;
48514;SDS011;34309;47.260;2.796;2024-02-21T09:17:53;1.93;;;1.67;;
48514;SDS011;34309;47.260;2.796;2024-02-21T09:20:27;3.10;;;2.00;;
48514;SDS011;34309;47.260;2.796;2024-02-21T09:23:02;1.70;;;1.57;;
48514;SDS011;34309;47.260;2.796;2024-02-21T09:25:37;1.63;;;1.40;;
48514;SDS011;34309;47.260;2.796;2024-02-21T09:28:11;1.90;;;1.80;;
48514;SDS011;34309;47.260;2.796;2024-02-21T09:30:45;1.70;;;1.70;;
48514;SDS011;34309;47.260;2.796;2024-02-21T09:33:19;3.90;;;3.37;;
48514;SDS011;34309;47.260;2.796;2024-02-21T09:35:53;2.93;;;2.53;;
48514;SDS011;34309;47.260;2.796;2024-02-21T09:38:27;1.93;;;1.83;;
48514;SDS011;34309;47.260;2.796;2024-02-21T09:41:03;4.03;;;2.93;;
48514;SDS011;34309;47.260;2.796;2024-02-21T09:43:47;2.00;;;1.90;;
48514;SDS011;34309;47.260;2.796;2024-02-21T09:46:27;2.20;;;2.00;;
48514;SDS011;34309;47.260;2.796;2024-02-21T09:49:14;2.87;;;2.23;;
48514;SDS011;34309;47.260;2.796;2024-02-21T09:51:55;1.87;;;1.77;;
48514;SDS011;34309;47.260;2.796;2024-02-21T09:54:32;2.40;;;2.20;;
48514;SDS011;34309;47.260;2.796;2024-02-21T09:57:07;2.40;;;2.20;;
48514;SDS011;34309;47.260;2.796;2024-02-21T09:59:41;2.37;;;1.77;;
48514;SDS011;34309;47.260;2.796;2024-02-21T10:02:15;2.43;;;2.33;;
48514;SDS011;34309;47.260;2.796;2024-02-21T10:04:49;5.53;;;2.00;;
48514;SDS011;34309;47.260;2.796;2024-02-21T10:07:24;2.60;;;2.10;;
48514;SDS011;34309;47.260;2.796;2024-02-21T10:10:01;3.03;;;2.30;;
48514;SDS011;34309;47.260;2.796;2024-02-21T10:12:36;4.23;;;2.70;;
48514;SDS011;34309;47.260;2.796;2024-02-21T10:15:20;2.17;;;1.93;;
48514;SDS011;34309;47.260;2.796;2024-02-21T10:17:58;2.57;;;2.37;;
48514;SDS011;34309;47.260;2.796;2024-02-21T10:20:35;2.83;;;1.93;;
48514;SDS011;34309;47.260;2.796;2024-02-21T10:23:10;1.70;;;1.60;;
48514;SDS011;34309;47.260;2.796;2024-02-21T10:25:45;2.80;;;2.43;;
48514;SDS011;34309;47.260;2.796;2024-02-21T10:28:20;2.90;;;2.70;;
48514;SDS011;34309;47.260;2.796;2024-02-21T10:30:55;1.60;;;1.60;;
48514;SDS011;34309;47.260;2.796;2024-02-21T10:33:29;5.43;;;2.77;;
48514;SDS011;34309;47.260;2.796;2024-02-21T10:36:07;2.80;;;1.77;;
48514;SDS011;34309;47.260;2.796;2024-02-21T10:38:43;2.33;;;2.13;;
48514;SDS011;34309;47.260;2.796;2024-02-21T10:41:12;2.10;;;1.97;;
48514;SDS011;34309;47.260;2.796;2024-02-21T10:43:49;2.47;;;2.27;;
48514;SDS011;34309;47.260;2.796;2024-02-21T10:46:25;2.53;;;2.33;;
48514;SDS011;34309;47.260;2.796;2024-02-21T10:49:03;2.33;;;2.13;;
48514;SDS011;34309;47.260;2.796;2024-02-21T10:51:43;1.53;;;1.47;;
48514;SDS011;34309;47.260;2.796;2024-02-21T10:54:24;2.30;;;2.13;;
48514;SDS011;34309;47.260;2.796;2024-02-21T10:57:13;1.93;;;1.57;;
48514;SDS011;34309;47.260;2.796;2024-02-21T10:59:47;2.47;;;2.37;;
48514;SDS011;34309;47.260;2.796;2024-02-21T11:02:22;2.40;;;2.20;;
48514;SDS011;34309;47.260;2.796;2024-02-21T11:04:55;2.47;;;2.27;;
48514;SDS011;34309;47.260;2.796;2024-02-21T11:07:30;1.93;;;1.77;;
48514;SDS011;34309;47.260;2.796;2024-02-21T11:10:19;6.03;;;5.70;;
48514;SDS011;34309;47.260;2.796;2024-02-21T11:13:04;10.40;;;9.90;;
48514;SDS011;34309;47.260;2.796;2024-02-21T11:15:39;9.43;;;8.93;;
48514;SDS011;34309;47.260;2.796;2024-02-21T11:18:22;10.10;;;9.50;;
48514;SDS011;34309;47.260;2.796;2024-02-21T11:20:57;10.00;;;9.50;;
48514;SDS011;34309;47.260;2.796;2024-02-21T11:23:30;11.77;;;10.90;;
48514;SDS011;34309;47.260;2.796;2024-02-21T11:26:07;11.00;;;10.40;;
48514;SDS011;34309;47.260;2.796;2024-02-21T11:28:41;9.27;;;8.87;;
48514;SDS011;34309;47.260;2.796;2024-02-21T11:31:16;10.57;;;9.77;;
48514;SDS011;34309;47.260;2.796;2024-02-21T11:33:50;10.03;;;9.53;;
48514;SDS011;34309;47.260;2.796;2024-02-21T11:36:25;10.13;;;9.63;;
48514;SDS011;34309;47.260;2.796;2024-02-21T11:39:03;10.03;;;9.53;;
48514;SDS011;34309;47.260;2.796;2024-02-21T11:41:39;9.57;;;8.97;;
48514;SDS011;34309;47.260;2.796;2024-02-21T11:44:12;10.67;;;10.03;;
48514;SDS011;34309;47.260;2.796;2024-02-21T11:46:46;9.60;;;9.10;;
48514;SDS011;34309;47.260;2.796;2024-02-21T11:49:21;9.63;;;9.13;;
48514;SDS011;34309;47.260;2.796;2024-02-21T11:52:00;9.57;;;9.07;;
48514;SDS011;34309;47.260;2.796;2024-02-21T11:54:36;10.57;;;10.00;;
48514;SDS011;34309;47.260;2.796;2024-02-21T11:57:11;9.77;;;9.07;;
48514;SDS011;34309;47.260;2.796;2024-02-21T11:59:45;9.33;;;8.93;;
48514;SDS011;34309;47.260;2.796;2024-02-21T12:02:19;9.13;;;8.73;;
48514;SDS011;34309;47.260;2.796;2024-02-21T12:04:53;10.80;;;10.20;;
48514;SDS011;34309;47.260;2.796;2024-02-21T12:07:26;10.00;;;9.50;;
48514;SDS011;34309;47.260;2.796;2024-02-21T12:10:01;9.80;;;9.30;;
48514;SDS011;34309;47.260;2.796;2024-02-21T12:12:36;9.97;;;9.23;;
48514;SDS011;34309;47.260;2.796;2024-02-21T12:15:11;9.20;;;8.80;;
48514;SDS011;34309;47.260;2.796;2024-02-21T12:17:46;9.63;;;9.13;;
48514;SDS011;34309;47.260;2.796;2024-02-21T12:20:20;10.37;;;9.77;;
48514;SDS011;34309;47.260;2.796;2024-02-21T12:22:55;10.93;;;10.33;;
48514;SDS011;34309;47.260;2.796;2024-02-21T12:25:30;9.33;;;8.87;;
48514;SDS011;34309;47.260;2.796;2024-02-21T12:28:00;10.20;;;9.43;;
48514;SDS011;34309;47.260;2.796;2024-02-21T12:30:35;12.10;;;10.93;;
48514;SDS011;34309;47.260;2.796;2024-02-21T12:33:11;10.40;;;9.80;;
48514;SDS011;34309;47.260;2.796;2024-02-21T12:35:45;10.13;;;9.60;;
48514;SDS011;34309;47.260;2.796;2024-02-21T12:38:15;9.70;;;9.20;;
48514;SDS011;34309;47.260;2.796;2024-02-21T12:40:52;9.70;;;9.20;;
48514;SDS011;34309;47.260;2.796;2024-02-21T12:43:22;10.20;;;9.67;;
48514;SDS011;34309;47.260;2.796;2024-02-21T12:45:55;10.30;;;9.80;;
48514;SDS011;34309;47.260;2.796;2024-02-21T12:48:28;10.67;;;10.07;;
48514;SDS011;34309;47.260;2.796;2024-02-21T12:51:02;10.50;;;9.87;;
48514;SDS011;34309;47.260;2.796;2024-02-21T12:53:37;10.40;;;9.90;;
48514;SDS011;34309;47.260;2.796;2024-02-21T12:56:11;10.23;;;9.73;;
48514;SDS011;34309;47.260;2.796;2024-02-21T12:58:46;9.50;;;9.00;;
48514;SDS011;34309;47.260;2.796;2024-02-21T13:01:20;9.03;;;8.60;;
48514;SDS011;34309;47.260;2.796;2024-02-21T13:03:54;10.57;;;9.97;;
48514;SDS011;34309;47.260;2.796;2024-02-21T13:06:29;9.13;;;8.73;;
48514;SDS011;34309;47.260;2.796;2024-02-21T13:09:04;9.20;;;8.80;;
48514;SDS011;34309;47.260;2.796;2024-02-21T13:11:39;6.83;;;6.33;;
48514;SDS011;34309;47.260;2.796;2024-02-21T13:14:15;5.40;;;5.10;;
48514;SDS011;34309;47.260;2.796;2024-02-21T13:16:49;5.43;;;5.17;;
48514;SDS011;34309;47.260;2.796;2024-02-21T13:19:23;4.93;;;4.73;;
48514;SDS011;34309;47.260;2.796;2024-02-21T13:21:56;5.67;;;5.37;;
48514;SDS011;34309;47.260;2.796;2024-02-21T13:24:30;6.43;;;5.97;;
48514;SDS011;34309;47.260;2.796;2024-02-21T13:27:04;6.63;;;6.23;;
48514;SDS011;34309;47.260;2.796;2024-02-21T13:29:39;7.43;;;7.07;;
48514;SDS011;34309;47.260;2.796;2024-02-21T13:32:14;6.20;;;5.80;;
48514;SDS011;34309;47.260;2.796;2024-02-21T13:34:48;5.40;;;5.17;;
48514;SDS011;34309;47.260;2.796;2024-02-21T13:37:24;6.93;;;6.53;;
48514;SDS011;34309;47.260;2.796;2024-02-21T13:39:59;5.07;;;4.87;;
48514;SDS011;34309;47.260;2.796;2024-02-21T13:42:34;5.70;;;5.40;;
48514;SDS011;34309;47.260;2.796;2024-02-21T13:45:10;5.13;;;4.93;;
48514;SDS011;34309;47.260;2.796;2024-02-21T13:47:43;5.87;;;5.50;;
48514;SDS011;34309;47.260;2.796;2024-02-21T13:50:17;6.80;;;6.20;;
48514;SDS011;34309;47.260;2.796;2024-02-21T13:52:52;6.10;;;5.60;;
48514;SDS011;34309;47.260;2.796;2024-02-21T13:55:25;5.10;;;4.90;;
48514;SDS011;34309;47.260;2.796;2024-02-21T13:57:59;6.13;;;5.73;;
48514;SDS011;34309;47.260;2.796;2024-02-21T14:00:36;5.97;;;5.67;;
48514;SDS011;34309;47.260;2.796;2024-02-21T14:03:09;5.53;;;5.23;;
48514;SDS011;34309;47.260;2.796;2024-02-21T14:05:43;5.63;;;5.33;;
48514;SDS011;34309;47.260;2.796;2024-02-21T14:08:19;5.43;;;5.13;;
48514;SDS011;34309;47.260;2.796;2024-02-21T14:10:53;7.77;;;7.27;;
48514;SDS011;34309;47.260;2.796;2024-02-21T14:13:30;6.40;;;6.07;;
48514;SDS011;34309;47.260;2.796;2024-02-21T14:16:10;5.60;;;5.30;;
48514;SDS011;34309;47.260;2.796;2024-02-21T14:18:44;5.63;;;5.30;;
48514;SDS011;34309;47.260;2.796;2024-02-21T14:21:18;5.10;;;4.87;;
48514;SDS011;34309;47.260;2.796;2024-02-21T14:23:51;4.50;;;4.30;;
48514;SDS011;34309;47.260;2.796;2024-02-21T14:26:25;5.73;;;5.43;;
48514;SDS011;34309;47.260;2.796;2024-02-21T14:28:59;4.93;;;4.73;;
48514;SDS011;34309;47.260;2.796;2024-02-21T14:31:36;5.77;;;5.47;;
48514;SDS011;34309;47.260;2.796;2024-02-21T14:34:10;5.30;;;4.80;;
48514;SDS011;34309;47.260;2.796;2024-02-21T14:36:45;5.37;;;5.13;;
48514;SDS011;34309;47.260;2.796;2024-02-21T14:39:19;5.27;;;5.03;;
48514;SDS011;34309;47.260;2.796;2024-02-21T14:41:53;5.37;;;5.17;;
48514;SDS011;34309;47.260;2.796;2024-02-21T14:44:27;5.53;;;5.23;;
48514;SDS011;34309;47.260;2.796;2024-02-21T14:47:03;5.10;;;4.90;;
48514;SDS011;34309;47.260;2.796;2024-02-21T14:49:31;5.40;;;5.10;;
48514;SDS011;34309;47.260;2.796;2024-02-21T14:52:05;5.10;;;4.90;;
48514;SDS011;34309;47.260;2.796;2024-02-21T14:54:39;6.10;;;5.70;;
48514;SDS011;34309;47.260;2.796;2024-02-21T14:57:18;5.57;;;5.27;;
48514;SDS011;34309;47.260;2.796;2024-02-21T14:59:53;4.80;;;4.60;;
48514;SDS011;34309;47.260;2.796;2024-02-21T15:02:29;5.03;;;4.83;;
48514;SDS011;34309;47.260;2.796;2024-02-21T15:05:03;5.63;;;5.33;;
48514;SDS011;34309;47.260;2.796;2024-02-21T15:07:38;6.37;;;5.93;;
48514;SDS011;34309;47.260;2.796;2024-02-21T15:10:12;5.67;;;5.30;;
48514;SDS011;34309;47.260;2.796;2024-02-21T15:12:46;5.13;;;4.83;;
48514;SDS011;34309;47.260;2.796;2024-02-21T15:15:21;5.97;;;5.57;;
48514;SDS011;34309;47.260;2.796;2024-02-21T15:17:56;5.00;;;4.80;;
48514;SDS011;34309;47.260;2.796;2024-02-21T15:20:29;4.87;;;4.67;;
48514;SDS011;34309;47.260;2.796;2024-02-21T15:23:03;5.83;;;5.53;;
48514;SDS011;34309;47.260;2.796;2024-02-21T15:25:37;5.67;;;5.37;;
48514;SDS011;34309;47.260;2.796;2024-02-21T15:28:11;5.20;;;4.90;;